sensor_id;sensor_type;location;lat;lon;timestamp;P1;durP1;ratioP1;P2;durP2;ratioP2
18102;SDS011;9178;51.120;6.192;2023-02-28T00:00:50;7.67;;;4.77;;
18102;SDS011;9178;51.120;6.192;2023-02-28T00:03:17;8.67;;;4.67;;
18102;SDS011;9178;51.120;6.192;2023-02-28T00:05:44;8.70;;;4.60;;
18102;SDS011;9178;51.120;6.192;2023-02-28T00:08:10;8.47;;;4.77;;
18102;SDS011;9178;51.120;6.192;2023-02-28T00:10:38;7.30;;;4.27;;
18102;SDS011;9178;51.120;6.192;2023-02-28T00:13:05;7.47;;;5.00;;
18102;SDS011;9178;51.120;6.192;2023-02-28T00:15:33;8.30;;;4.73;;
18102;SDS011;9178;51.120;6.192;2023-02-28T00:18:01;7.43;;;4.60;;
18102;SDS011;9178;51.120;6.192;2023-02-28T00:20:28;8.83;;;4.53;;
18102;SDS011;9178;51.120;6.192;2023-02-28T00:22:55;7.07;;;4.20;;
18102;SDS011;9178;51.120;6.192;2023-02-28T00:25:23;7.77;;;4.00;;
18102;SDS011;9178;51.120;6.192;2023-02-28T00:27:51;7.90;;;3.90;;
18102;SDS011;9178;51.120;6.192;2023-02-28T00:30:18;7.67;;;4.43;;
18102;SDS011;9178;51.120;6.192;2023-02-28T00:32:46;8.83;;;4.30;;
18102;SDS011;9178;51.120;6.192;2023-02-28T00:35:15;5.93;;;4.13;;
18102;SDS011;9178;51.120;6.192;2023-02-28T00:37:42;7.50;;;4.27;;
18102;SDS011;9178;51.120;6.192;2023-02-28T00:40:09;7.63;;;5.50;;
18102;SDS011;9178;51.120;6.192;2023-02-28T00:42:37;8.13;;;4.20;;
18102;SDS011;9178;51.120;6.192;2023-02-28T00:45:05;7.87;;;4.47;;
18102;SDS011;9178;51.120;6.192;2023-02-28T00:47:33;7.73;;;4.57;;
18102;SDS011;9178;51.120;6.192;2023-02-28T00:49:59;8.50;;;4.30;;
18102;SDS011;9178;51.120;6.192;2023-02-28T00:52:28;6.30;;;4.50;;
18102;SDS011;9178;51.120;6.192;2023-02-28T00:54:55;7.87;;;4.67;;
18102;SDS011;9178;51.120;6.192;2023-02-28T00:57:22;8.23;;;4.27;;
18102;SDS011;9178;51.120;6.192;2023-02-28T00:59:49;8.47;;;4.50;;
18102;SDS011;9178;51.120;6.192;2023-02-28T01:02:15;9.73;;;4.90;;
18102;SDS011;9178;51.120;6.192;2023-02-28T01:04:43;8.23;;;4.80;;
18102;SDS011;9178;51.120;6.192;2023-02-28T01:07:10;7.67;;;4.97;;
18102;SDS011;9178;51.120;6.192;2023-02-28T01:09:38;7.20;;;5.30;;
18102;SDS011;9178;51.120;6.192;2023-02-28T01:12:05;7.17;;;5.30;;
18102;SDS011;9178;51.120;6.192;2023-02-28T01:14:33;14.33;;;7.50;;
18102;SDS011;9178;51.120;6.192;2023-02-28T01:17:00;13.17;;;5.87;;
18102;SDS011;9178;51.120;6.192;2023-02-28T01:19:28;8.43;;;5.23;;
18102;SDS011;9178;51.120;6.192;2023-02-28T01:21:54;9.40;;;4.83;;
18102;SDS011;9178;51.120;6.192;2023-02-28T01:24:21;7.13;;;5.17;;
18102;SDS011;9178;51.120;6.192;2023-02-28T01:26:49;9.00;;;4.57;;
18102;SDS011;9178;51.120;6.192;2023-02-28T01:29:16;7.57;;;4.60;;
18102;SDS011;9178;51.120;6.192;2023-02-28T01:31:43;6.60;;;4.33;;
18102;SDS011;9178;51.120;6.192;2023-02-28T01:34:10;7.53;;;4.13;;
18102;SDS011;9178;51.120;6.192;2023-02-28T01:36:37;8.43;;;4.53;;
18102;SDS011;9178;51.120;6.192;2023-02-28T01:39:03;7.30;;;4.70;;
18102;SDS011;9178;51.120;6.192;2023-02-28T01:41:31;6.10;;;4.27;;
18102;SDS011;9178;51.120;6.192;2023-02-28T01:44:03;5.80;;;4.07;;
18102;SDS011;9178;51.120;6.192;2023-02-28T01:46:32;7.83;;;4.57;;
18102;SDS011;9178;51.120;6.192;2023-02-28T01:49:06;6.57;;;4.23;;
18102;SDS011;9178;51.120;6.192;2023-02-28T01:51:38;7.57;;;4.20;;
18102;SDS011;9178;51.120;6.192;2023-02-28T01:54:11;6.80;;;4.10;;
18102;SDS011;9178;51.120;6.192;2023-02-28T01:56:43;6.50;;;3.93;;
18102;SDS011;9178;51.120;6.192;2023-02-28T01:59:14;6.67;;;4.30;;
18102;SDS011;9178;51.120;6.192;2023-02-28T02:01:48;8.90;;;4.70;;
18102;SDS011;9178;51.120;6.192;2023-02-28T02:04:15;8.13;;;5.03;;
18102;SDS011;9178;51.120;6.192;2023-02-28T02:06:43;6.50;;;4.33;;
18102;SDS011;9178;51.120;6.192;2023-02-28T02:09:12;11.17;;;5.33;;
18102;SDS011;9178;51.120;6.192;2023-02-28T02:11:39;8.53;;;4.50;;
18102;SDS011;9178;51.120;6.192;2023-02-28T02:14:11;6.83;;;4.87;;
18102;SDS011;9178;51.120;6.192;2023-02-28T02:16:52;6.77;;;4.47;;
18102;SDS011;9178;51.120;6.192;2023-02-28T02:22:58;10.43;;;5.50;;
18102;SDS011;9178;51.120;6.192;2023-02-28T02:25:48;12.70;;;5.63;;
18102;SDS011;9178;51.120;6.192;2023-02-28T02:28:34;9.20;;;5.13;;
18102;SDS011;9178;51.120;6.192;2023-02-28T02:31:24;11.57;;;5.57;;
18102;SDS011;9178;51.120;6.192;2023-02-28T02:34:26;11.93;;;5.93;;
18102;SDS011;9178;51.120;6.192;2023-02-28T02:37:11;10.57;;;5.20;;
18102;SDS011;9178;51.120;6.192;2023-02-28T02:39:45;9.40;;;5.50;;
18102;SDS011;9178;51.120;6.192;2023-02-28T02:42:19;7.53;;;5.13;;
18102;SDS011;9178;51.120;6.192;2023-02-28T02:44:52;9.50;;;5.17;;
18102;SDS011;9178;51.120;6.192;2023-02-28T02:47:25;10.00;;;4.90;;
18102;SDS011;9178;51.120;6.192;2023-02-28T02:49:56;7.40;;;4.97;;
18102;SDS011;9178;51.120;6.192;2023-02-28T02:52:29;8.27;;;5.63;;
18102;SDS011;9178;51.120;6.192;2023-02-28T02:54:58;9.00;;;4.97;;
18102;SDS011;9178;51.120;6.192;2023-02-28T02:57:30;8.27;;;5.23;;
18102;SDS011;9178;51.120;6.192;2023-02-28T03:00:00;7.70;;;5.30;;
18102;SDS011;9178;51.120;6.192;2023-02-28T03:02:30;11.13;;;5.20;;
18102;SDS011;9178;51.120;6.192;2023-02-28T03:05:01;8.37;;;5.20;;
18102;SDS011;9178;51.120;6.192;2023-02-28T03:07:31;10.27;;;5.00;;
18102;SDS011;9178;51.120;6.192;2023-02-28T03:09:58;8.80;;;5.70;;
18102;SDS011;9178;51.120;6.192;2023-02-28T03:12:28;7.77;;;5.33;;
18102;SDS011;9178;51.120;6.192;2023-02-28T03:15:04;9.03;;;4.83;;
18102;SDS011;9178;51.120;6.192;2023-02-28T03:17:44;11.83;;;4.77;;
18102;SDS011;9178;51.120;6.192;2023-02-28T03:20:30;9.90;;;5.30;;
18102;SDS011;9178;51.120;6.192;2023-02-28T03:23:07;8.17;;;4.53;;
18102;SDS011;9178;51.120;6.192;2023-02-28T03:25:42;8.90;;;4.77;;
18102;SDS011;9178;51.120;6.192;2023-02-28T03:28:19;9.93;;;4.90;;
18102;SDS011;9178;51.120;6.192;2023-02-28T03:30:54;9.40;;;5.40;;
18102;SDS011;9178;51.120;6.192;2023-02-28T03:33:25;7.27;;;4.80;;
18102;SDS011;9178;51.120;6.192;2023-02-28T03:35:56;9.00;;;5.20;;
18102;SDS011;9178;51.120;6.192;2023-02-28T03:38:28;7.37;;;4.77;;
18102;SDS011;9178;51.120;6.192;2023-02-28T03:41:00;8.27;;;5.10;;
18102;SDS011;9178;51.120;6.192;2023-02-28T03:43:32;6.50;;;4.67;;
18102;SDS011;9178;51.120;6.192;2023-02-28T03:46:04;8.43;;;4.90;;
18102;SDS011;9178;51.120;6.192;2023-02-28T03:48:36;8.20;;;5.23;;
18102;SDS011;9178;51.120;6.192;2023-02-28T03:51:09;12.13;;;5.20;;
18102;SDS011;9178;51.120;6.192;2023-02-28T03:53:39;7.20;;;4.93;;
18102;SDS011;9178;51.120;6.192;2023-02-28T03:56:09;9.90;;;5.23;;
18102;SDS011;9178;51.120;6.192;2023-02-28T03:58:41;8.80;;;4.80;;
18102;SDS011;9178;51.120;6.192;2023-02-28T04:01:15;8.53;;;5.00;;
18102;SDS011;9178;51.120;6.192;2023-02-28T04:03:45;10.10;;;6.00;;
18102;SDS011;9178;51.120;6.192;2023-02-28T04:06:14;14.93;;;5.43;;
18102;SDS011;9178;51.120;6.192;2023-02-28T04:08:43;9.00;;;5.27;;
18102;SDS011;9178;51.120;6.192;2023-02-28T04:11:15;11.80;;;5.47;;
18102;SDS011;9178;51.120;6.192;2023-02-28T04:13:45;9.30;;;5.40;;
18102;SDS011;9178;51.120;6.192;2023-02-28T04:16:12;10.77;;;5.60;;
18102;SDS011;9178;51.120;6.192;2023-02-28T04:18:40;7.63;;;5.20;;
18102;SDS011;9178;51.120;6.192;2023-02-28T04:21:08;8.90;;;5.50;;
18102;SDS011;9178;51.120;6.192;2023-02-28T04:23:36;6.87;;;4.90;;
18102;SDS011;9178;51.120;6.192;2023-02-28T04:26:03;10.13;;;5.80;;
18102;SDS011;9178;51.120;6.192;2023-02-28T04:28:31;11.17;;;5.80;;
18102;SDS011;9178;51.120;6.192;2023-02-28T04:30:59;14.00;;;6.67;;
18102;SDS011;9178;51.120;6.192;2023-02-28T04:33:28;10.17;;;6.03;;
18102;SDS011;9178;51.120;6.192;2023-02-28T04:36:01;8.87;;;5.77;;
18102;SDS011;9178;51.120;6.192;2023-02-28T04:38:29;8.93;;;5.43;;
18102;SDS011;9178;51.120;6.192;2023-02-28T04:40:59;9.70;;;5.60;;
18102;SDS011;9178;51.120;6.192;2023-02-28T04:43:27;10.17;;;5.60;;
18102;SDS011;9178;51.120;6.192;2023-02-28T04:45:54;10.30;;;5.50;;
18102;SDS011;9178;51.120;6.192;2023-02-28T04:48:22;9.50;;;5.80;;
18102;SDS011;9178;51.120;6.192;2023-02-28T04:50:50;9.40;;;6.07;;
18102;SDS011;9178;51.120;6.192;2023-02-28T04:53:17;11.93;;;5.33;;
18102;SDS011;9178;51.120;6.192;2023-02-28T04:55:44;13.80;;;5.90;;
18102;SDS011;9178;51.120;6.192;2023-02-28T04:58:12;8.90;;;5.27;;
18102;SDS011;9178;51.120;6.192;2023-02-28T05:00:39;9.17;;;5.17;;
18102;SDS011;9178;51.120;6.192;2023-02-28T05:03:06;9.87;;;5.80;;
18102;SDS011;9178;51.120;6.192;2023-02-28T05:05:32;10.70;;;6.13;;
18102;SDS011;9178;51.120;6.192;2023-02-28T05:07:59;7.90;;;5.27;;
18102;SDS011;9178;51.120;6.192;2023-02-28T05:10:26;11.13;;;5.80;;
18102;SDS011;9178;51.120;6.192;2023-02-28T05:12:53;12.03;;;6.43;;
18102;SDS011;9178;51.120;6.192;2023-02-28T05:15:21;11.67;;;6.30;;
18102;SDS011;9178;51.120;6.192;2023-02-28T05:17:48;9.03;;;5.63;;
18102;SDS011;9178;51.120;6.192;2023-02-28T05:20:14;8.50;;;5.20;;
18102;SDS011;9178;51.120;6.192;2023-02-28T05:22:42;18.80;;;9.00;;
18102;SDS011;9178;51.120;6.192;2023-02-28T05:25:10;18.53;;;8.57;;
18102;SDS011;9178;51.120;6.192;2023-02-28T05:27:42;14.43;;;5.20;;
18102;SDS011;9178;51.120;6.192;2023-02-28T05:30:09;8.57;;;4.17;;
18102;SDS011;9178;51.120;6.192;2023-02-28T05:32:39;5.80;;;3.67;;
18102;SDS011;9178;51.120;6.192;2023-02-28T05:35:08;7.47;;;4.40;;
18102;SDS011;9178;51.120;6.192;2023-02-28T05:37:36;7.07;;;4.17;;
18102;SDS011;9178;51.120;6.192;2023-02-28T05:40:04;8.17;;;4.33;;
18102;SDS011;9178;51.120;6.192;2023-02-28T05:42:35;7.67;;;4.00;;
18102;SDS011;9178;51.120;6.192;2023-02-28T05:45:02;5.70;;;3.80;;
18102;SDS011;9178;51.120;6.192;2023-02-28T05:47:29;6.33;;;3.83;;
18102;SDS011;9178;51.120;6.192;2023-02-28T05:49:57;7.20;;;3.80;;
18102;SDS011;9178;51.120;6.192;2023-02-28T05:52:25;7.60;;;3.40;;
18102;SDS011;9178;51.120;6.192;2023-02-28T05:54:52;7.53;;;3.83;;
18102;SDS011;9178;51.120;6.192;2023-02-28T05:57:18;5.37;;;3.50;;
18102;SDS011;9178;51.120;6.192;2023-02-28T05:59:45;6.33;;;3.47;;
18102;SDS011;9178;51.120;6.192;2023-02-28T06:02:12;5.87;;;3.40;;
18102;SDS011;9178;51.120;6.192;2023-02-28T06:04:41;7.90;;;3.67;;
18102;SDS011;9178;51.120;6.192;2023-02-28T06:07:09;6.03;;;3.73;;
18102;SDS011;9178;51.120;6.192;2023-02-28T06:09:36;6.10;;;3.73;;
18102;SDS011;9178;51.120;6.192;2023-02-28T06:12:04;6.70;;;3.77;;
18102;SDS011;9178;51.120;6.192;2023-02-28T06:14:34;4.47;;;3.30;;
18102;SDS011;9178;51.120;6.192;2023-02-28T06:17:02;5.17;;;3.57;;
18102;SDS011;9178;51.120;6.192;2023-02-28T06:19:30;4.47;;;3.30;;
18102;SDS011;9178;51.120;6.192;2023-02-28T06:21:57;4.53;;;3.50;;
18102;SDS011;9178;51.120;6.192;2023-02-28T06:24:26;6.83;;;3.60;;
18102;SDS011;9178;51.120;6.192;2023-02-28T06:26:53;9.37;;;3.47;;
18102;SDS011;9178;51.120;6.192;2023-02-28T06:29:21;6.00;;;3.57;;
18102;SDS011;9178;51.120;6.192;2023-02-28T06:31:48;7.80;;;3.23;;
18102;SDS011;9178;51.120;6.192;2023-02-28T06:34:14;5.57;;;3.47;;
18102;SDS011;9178;51.120;6.192;2023-02-28T06:36:41;5.93;;;3.23;;
18102;SDS011;9178;51.120;6.192;2023-02-28T06:39:08;8.73;;;4.13;;
18102;SDS011;9178;51.120;6.192;2023-02-28T06:41:37;4.27;;;3.30;;
18102;SDS011;9178;51.120;6.192;2023-02-28T06:44:05;8.53;;;3.20;;
18102;SDS011;9178;51.120;6.192;2023-02-28T06:46:38;6.13;;;4.00;;
18102;SDS011;9178;51.120;6.192;2023-02-28T06:49:05;6.07;;;3.17;;
18102;SDS011;9178;51.120;6.192;2023-02-28T06:51:34;4.83;;;3.00;;
18102;SDS011;9178;51.120;6.192;2023-02-28T06:54:02;6.53;;;3.00;;
18102;SDS011;9178;51.120;6.192;2023-02-28T06:56:29;5.00;;;3.30;;
18102;SDS011;9178;51.120;6.192;2023-02-28T06:58:57;4.63;;;2.93;;
18102;SDS011;9178;51.120;6.192;2023-02-28T07:01:24;5.77;;;3.13;;
18102;SDS011;9178;51.120;6.192;2023-02-28T07:03:52;5.10;;;2.97;;
18102;SDS011;9178;51.120;6.192;2023-02-28T07:06:20;6.73;;;3.47;;
18102;SDS011;9178;51.120;6.192;2023-02-28T07:08:48;5.13;;;3.00;;
18102;SDS011;9178;51.120;6.192;2023-02-28T07:11:15;6.30;;;3.10;;
18102;SDS011;9178;51.120;6.192;2023-02-28T07:13:42;4.63;;;3.00;;
18102;SDS011;9178;51.120;6.192;2023-02-28T07:16:11;4.33;;;2.90;;
18102;SDS011;9178;51.120;6.192;2023-02-28T07:18:38;5.70;;;2.90;;
18102;SDS011;9178;51.120;6.192;2023-02-28T07:21:06;4.27;;;2.70;;
18102;SDS011;9178;51.120;6.192;2023-02-28T07:23:34;6.10;;;3.00;;
18102;SDS011;9178;51.120;6.192;2023-02-28T07:26:03;3.53;;;2.30;;
18102;SDS011;9178;51.120;6.192;2023-02-28T07:28:30;4.77;;;2.83;;
18102;SDS011;9178;51.120;6.192;2023-02-28T07:31:02;3.37;;;2.40;;
18102;SDS011;9178;51.120;6.192;2023-02-28T07:33:31;5.23;;;2.77;;
18102;SDS011;9178;51.120;6.192;2023-02-28T07:36:02;5.13;;;2.80;;
18102;SDS011;9178;51.120;6.192;2023-02-28T07:38:31;3.93;;;2.40;;
18102;SDS011;9178;51.120;6.192;2023-02-28T07:40:59;9.20;;;2.47;;
18102;SDS011;9178;51.120;6.192;2023-02-28T07:43:29;2.80;;;2.30;;
18102;SDS011;9178;51.120;6.192;2023-02-28T07:46:00;2.37;;;2.10;;
18102;SDS011;9178;51.120;6.192;2023-02-28T07:48:28;2.47;;;2.20;;
18102;SDS011;9178;51.120;6.192;2023-02-28T07:50:56;4.03;;;2.30;;
18102;SDS011;9178;51.120;6.192;2023-02-28T07:53:24;2.73;;;2.00;;
18102;SDS011;9178;51.120;6.192;2023-02-28T07:55:51;2.10;;;1.73;;
18102;SDS011;9178;51.120;6.192;2023-02-28T07:58:21;2.13;;;1.90;;
18102;SDS011;9178;51.120;6.192;2023-02-28T08:00:48;2.63;;;1.90;;
18102;SDS011;9178;51.120;6.192;2023-02-28T08:03:15;2.90;;;2.20;;
18102;SDS011;9178;51.120;6.192;2023-02-28T08:05:43;2.63;;;2.00;;
18102;SDS011;9178;51.120;6.192;2023-02-28T08:08:11;2.83;;;1.80;;
18102;SDS011;9178;51.120;6.192;2023-02-28T08:10:38;2.27;;;1.70;;
18102;SDS011;9178;51.120;6.192;2023-02-28T08:13:04;1.80;;;1.60;;
18102;SDS011;9178;51.120;6.192;2023-02-28T08:15:31;2.30;;;1.53;;
18102;SDS011;9178;51.120;6.192;2023-02-28T08:17:58;2.10;;;1.83;;
18102;SDS011;9178;51.120;6.192;2023-02-28T08:20:25;2.73;;;1.60;;
18102;SDS011;9178;51.120;6.192;2023-02-28T08:22:52;2.20;;;1.70;;
18102;SDS011;9178;51.120;6.192;2023-02-28T08:25:21;1.90;;;1.70;;
18102;SDS011;9178;51.120;6.192;2023-02-28T08:27:49;1.80;;;1.70;;
18102;SDS011;9178;51.120;6.192;2023-02-28T08:30:16;2.23;;;1.83;;
18102;SDS011;9178;51.120;6.192;2023-02-28T08:32:43;3.23;;;2.00;;
18102;SDS011;9178;51.120;6.192;2023-02-28T08:35:10;1.50;;;1.40;;
18102;SDS011;9178;51.120;6.192;2023-02-28T08:37:37;3.07;;;1.80;;
18102;SDS011;9178;51.120;6.192;2023-02-28T08:40:05;1.93;;;1.70;;
18102;SDS011;9178;51.120;6.192;2023-02-28T08:42:34;2.63;;;1.87;;
18102;SDS011;9178;51.120;6.192;2023-02-28T08:45:02;2.03;;;1.67;;
18102;SDS011;9178;51.120;6.192;2023-02-28T08:47:29;2.23;;;1.80;;
18102;SDS011;9178;51.120;6.192;2023-02-28T08:49:56;1.73;;;1.30;;
18102;SDS011;9178;51.120;6.192;2023-02-28T08:52:22;3.47;;;1.70;;
18102;SDS011;9178;51.120;6.192;2023-02-28T08:54:49;1.43;;;1.33;;
18102;SDS011;9178;51.120;6.192;2023-02-28T08:57:16;1.70;;;1.57;;
18102;SDS011;9178;51.120;6.192;2023-02-28T08:59:44;1.83;;;1.40;;
18102;SDS011;9178;51.120;6.192;2023-02-28T09:02:12;2.00;;;1.30;;
18102;SDS011;9178;51.120;6.192;2023-02-28T09:04:39;2.07;;;1.57;;
18102;SDS011;9178;51.120;6.192;2023-02-28T09:07:06;1.43;;;1.33;;
18102;SDS011;9178;51.120;6.192;2023-02-28T09:09:33;2.47;;;1.50;;
18102;SDS011;9178;51.120;6.192;2023-02-28T09:12:00;1.87;;;1.50;;
18102;SDS011;9178;51.120;6.192;2023-02-28T09:14:27;2.80;;;1.47;;
18102;SDS011;9178;51.120;6.192;2023-02-28T09:16:55;3.13;;;1.70;;
18102;SDS011;9178;51.120;6.192;2023-02-28T09:19:22;2.00;;;1.70;;
18102;SDS011;9178;51.120;6.192;2023-02-28T09:21:49;1.67;;;1.57;;
18102;SDS011;9178;51.120;6.192;2023-02-28T09:24:17;3.00;;;1.63;;
18102;SDS011;9178;51.120;6.192;2023-02-28T09:26:45;1.70;;;1.43;;
18102;SDS011;9178;51.120;6.192;2023-02-28T09:29:12;1.53;;;1.43;;
18102;SDS011;9178;51.120;6.192;2023-02-28T09:31:39;1.70;;;1.30;;
18102;SDS011;9178;51.120;6.192;2023-02-28T09:34:07;2.40;;;1.50;;
18102;SDS011;9178;51.120;6.192;2023-02-28T09:36:34;1.70;;;1.60;;
18102;SDS011;9178;51.120;6.192;2023-02-28T09:39:03;1.87;;;1.43;;
18102;SDS011;9178;51.120;6.192;2023-02-28T09:41:32;2.07;;;1.30;;
18102;SDS011;9178;51.120;6.192;2023-02-28T09:44:12;1.03;;;0.83;;
18102;SDS011;9178;51.120;6.192;2023-02-28T09:46:44;1.03;;;0.90;;
18102;SDS011;9178;51.120;6.192;2023-02-28T09:49:16;2.27;;;1.17;;
18102;SDS011;9178;51.120;6.192;2023-02-28T09:51:47;1.07;;;0.97;;
18102;SDS011;9178;51.120;6.192;2023-02-28T09:54:18;3.57;;;1.23;;
18102;SDS011;9178;51.120;6.192;2023-02-28T09:56:48;1.53;;;0.97;;
18102;SDS011;9178;51.120;6.192;2023-02-28T09:59:26;1.53;;;1.10;;
18102;SDS011;9178;51.120;6.192;2023-02-28T10:02:04;1.40;;;1.30;;
18102;SDS011;9178;51.120;6.192;2023-02-28T10:04:44;1.63;;;1.00;;
18102;SDS011;9178;51.120;6.192;2023-02-28T10:07:20;1.53;;;1.03;;
18102;SDS011;9178;51.120;6.192;2023-02-28T10:10:04;1.70;;;1.10;;
18102;SDS011;9178;51.120;6.192;2023-02-28T10:12:42;3.27;;;1.20;;
18102;SDS011;9178;51.120;6.192;2023-02-28T10:15:13;3.73;;;1.23;;
18102;SDS011;9178;51.120;6.192;2023-02-28T10:17:41;2.13;;;1.20;;
18102;SDS011;9178;51.120;6.192;2023-02-28T10:20:11;1.43;;;1.20;;
18102;SDS011;9178;51.120;6.192;2023-02-28T10:22:48;2.33;;;1.10;;
18102;SDS011;9178;51.120;6.192;2023-02-28T10:25:20;3.23;;;1.37;;
18102;SDS011;9178;51.120;6.192;2023-02-28T10:27:49;1.20;;;1.10;;
18102;SDS011;9178;51.120;6.192;2023-02-28T10:30:19;3.80;;;1.30;;
18102;SDS011;9178;51.120;6.192;2023-02-28T10:32:47;1.40;;;1.00;;
18102;SDS011;9178;51.120;6.192;2023-02-28T10:35:20;1.57;;;1.17;;
18102;SDS011;9178;51.120;6.192;2023-02-28T10:37:49;2.93;;;1.13;;
18102;SDS011;9178;51.120;6.192;2023-02-28T10:40:28;1.10;;;1.00;;
18102;SDS011;9178;51.120;6.192;2023-02-28T10:42:58;1.57;;;1.20;;
18102;SDS011;9178;51.120;6.192;2023-02-28T10:45:26;1.90;;;1.20;;
18102;SDS011;9178;51.120;6.192;2023-02-28T10:47:57;2.20;;;1.17;;
18102;SDS011;9178;51.120;6.192;2023-02-28T10:53:28;1.00;;;0.90;;
18102;SDS011;9178;51.120;6.192;2023-02-28T10:55:58;2.77;;;1.30;;
18102;SDS011;9178;51.120;6.192;2023-02-28T10:58:27;1.73;;;1.20;;
18102;SDS011;9178;51.120;6.192;2023-02-28T11:00:56;1.93;;;1.20;;
18102;SDS011;9178;51.120;6.192;2023-02-28T11:03:25;2.70;;;1.17;;
18102;SDS011;9178;51.120;6.192;2023-02-28T11:05:58;4.13;;;1.40;;
18102;SDS011;9178;51.120;6.192;2023-02-28T11:08:29;2.70;;;1.70;;
18102;SDS011;9178;51.120;6.192;2023-02-28T11:10:58;1.17;;;1.10;;
18102;SDS011;9178;51.120;6.192;2023-02-28T11:13:31;1.50;;;1.40;;
18102;SDS011;9178;51.120;6.192;2023-02-28T11:16:00;1.37;;;1.03;;
18102;SDS011;9178;51.120;6.192;2023-02-28T11:18:30;1.53;;;1.30;;
18102;SDS011;9178;51.120;6.192;2023-02-28T11:21:03;1.27;;;1.17;;
18102;SDS011;9178;51.120;6.192;2023-02-28T11:23:31;1.30;;;1.20;;
18102;SDS011;9178;51.120;6.192;2023-02-28T11:26:02;1.33;;;1.23;;
18102;SDS011;9178;51.120;6.192;2023-02-28T11:28:35;1.30;;;1.20;;
18102;SDS011;9178;51.120;6.192;2023-02-28T11:31:05;1.80;;;1.40;;
18102;SDS011;9178;51.120;6.192;2023-02-28T11:33:42;2.23;;;1.63;;
18102;SDS011;9178;51.120;6.192;2023-02-28T11:36:12;1.77;;;1.30;;
18102;SDS011;9178;51.120;6.192;2023-02-28T11:38:41;3.87;;;1.20;;
18102;SDS011;9178;51.120;6.192;2023-02-28T11:41:15;2.07;;;1.40;;
18102;SDS011;9178;51.120;6.192;2023-02-28T11:44:05;1.40;;;1.30;;
18102;SDS011;9178;51.120;6.192;2023-02-28T11:46:44;2.63;;;1.40;;
18102;SDS011;9178;51.120;6.192;2023-02-28T11:49:23;1.10;;;1.00;;
18102;SDS011;9178;51.120;6.192;2023-02-28T11:52:01;1.70;;;1.20;;
18102;SDS011;9178;51.120;6.192;2023-02-28T11:54:35;1.57;;;1.27;;
18102;SDS011;9178;51.120;6.192;2023-02-28T11:57:31;2.10;;;1.27;;
18102;SDS011;9178;51.120;6.192;2023-02-28T12:00:06;2.73;;;1.20;;
18102;SDS011;9178;51.120;6.192;2023-02-28T12:02:46;1.77;;;1.10;;
18102;SDS011;9178;51.120;6.192;2023-02-28T12:05:24;2.13;;;1.37;;
18102;SDS011;9178;51.120;6.192;2023-02-28T12:08:00;1.30;;;1.20;;
18102;SDS011;9178;51.120;6.192;2023-02-28T12:10:35;3.23;;;1.30;;
18102;SDS011;9178;51.120;6.192;2023-02-28T12:13:12;2.10;;;1.33;;
18102;SDS011;9178;51.120;6.192;2023-02-28T12:18:50;1.77;;;1.30;;
18102;SDS011;9178;51.120;6.192;2023-02-28T12:21:28;2.40;;;1.30;;
18102;SDS011;9178;51.120;6.192;2023-02-28T12:27:18;3.80;;;1.70;;
18102;SDS011;9178;51.120;6.192;2023-02-28T12:29:49;2.17;;;1.33;;
18102;SDS011;9178;51.120;6.192;2023-02-28T12:32:21;3.70;;;1.43;;
18102;SDS011;9178;51.120;6.192;2023-02-28T12:34:54;1.90;;;1.57;;
18102;SDS011;9178;51.120;6.192;2023-02-28T12:37:25;1.50;;;1.40;;
18102;SDS011;9178;51.120;6.192;2023-02-28T12:40:00;2.23;;;1.23;;
18102;SDS011;9178;51.120;6.192;2023-02-28T12:42:31;1.67;;;1.53;;
18102;SDS011;9178;51.120;6.192;2023-02-28T12:45:02;1.77;;;1.40;;
18102;SDS011;9178;51.120;6.192;2023-02-28T12:47:36;2.03;;;1.23;;
18102;SDS011;9178;51.120;6.192;2023-02-28T12:50:07;1.33;;;1.20;;
18102;SDS011;9178;51.120;6.192;2023-02-28T12:52:37;2.53;;;1.40;;
18102;SDS011;9178;51.120;6.192;2023-02-28T12:55:12;1.50;;;1.40;;
18102;SDS011;9178;51.120;6.192;2023-02-28T12:57:45;1.77;;;1.40;;
18102;SDS011;9178;51.120;6.192;2023-02-28T13:00:18;2.23;;;1.60;;
18102;SDS011;9178;51.120;6.192;2023-02-28T13:02:55;2.17;;;1.67;;
18102;SDS011;9178;51.120;6.192;2023-02-28T13:05:43;3.00;;;1.70;;
18102;SDS011;9178;51.120;6.192;2023-02-28T13:11:24;2.20;;;1.27;;
18102;SDS011;9178;51.120;6.192;2023-02-28T13:13:57;2.43;;;1.30;;
18102;SDS011;9178;51.120;6.192;2023-02-28T13:16:26;1.93;;;1.43;;
18102;SDS011;9178;51.120;6.192;2023-02-28T13:18:53;2.07;;;1.40;;
18102;SDS011;9178;51.120;6.192;2023-02-28T13:21:41;2.10;;;1.30;;
18102;SDS011;9178;51.120;6.192;2023-02-28T13:24:10;2.33;;;1.60;;
18102;SDS011;9178;51.120;6.192;2023-02-28T13:27:22;2.17;;;1.70;;
18102;SDS011;9178;51.120;6.192;2023-02-28T13:30:00;1.73;;;1.50;;
18102;SDS011;9178;51.120;6.192;2023-02-28T13:32:32;2.93;;;1.80;;
18102;SDS011;9178;51.120;6.192;2023-02-28T13:35:14;1.97;;;1.53;;
18102;SDS011;9178;51.120;6.192;2023-02-28T13:38:09;1.50;;;1.40;;
18102;SDS011;9178;51.120;6.192;2023-02-28T13:40:58;1.57;;;1.30;;
18102;SDS011;9178;51.120;6.192;2023-02-28T13:44:05;1.60;;;1.50;;
18102;SDS011;9178;51.120;6.192;2023-02-28T13:46:34;2.60;;;1.60;;
18102;SDS011;9178;51.120;6.192;2023-02-28T13:49:18;2.00;;;1.40;;
18102;SDS011;9178;51.120;6.192;2023-02-28T13:51:46;2.23;;;1.43;;
18102;SDS011;9178;51.120;6.192;2023-02-28T13:54:19;2.50;;;1.30;;
18102;SDS011;9178;51.120;6.192;2023-02-28T13:57:00;1.90;;;1.70;;
18102;SDS011;9178;51.120;6.192;2023-02-28T13:59:42;2.10;;;1.63;;
18102;SDS011;9178;51.120;6.192;2023-02-28T14:02:25;2.58;;;1.55;;
18102;SDS011;9178;51.120;6.192;2023-02-28T14:05:14;2.55;;;1.80;;
18102;SDS011;9178;51.120;6.192;2023-02-28T14:07:44;2.20;;;1.58;;
18102;SDS011;9178;51.120;6.192;2023-02-28T14:10:21;2.08;;;1.48;;
18102;SDS011;9178;51.120;6.192;2023-02-28T14:12:54;1.67;;;1.58;;
18102;SDS011;9178;51.120;6.192;2023-02-28T14:15:28;1.58;;;1.27;;
18102;SDS011;9178;51.120;6.192;2023-02-28T14:18:11;1.50;;;1.40;;
18102;SDS011;9178;51.120;6.192;2023-02-28T14:20:48;4.82;;;2.00;;
18102;SDS011;9178;51.120;6.192;2023-02-28T14:23:21;2.53;;;1.85;;
18102;SDS011;9178;51.120;6.192;2023-02-28T14:26:19;2.78;;;2.05;;
18102;SDS011;9178;51.120;6.192;2023-02-28T14:29:07;2.45;;;1.88;;
18102;SDS011;9178;51.120;6.192;2023-02-28T14:31:55;2.40;;;1.90;;
18102;SDS011;9178;51.120;6.192;2023-02-28T14:34:34;2.70;;;1.90;;
18102;SDS011;9178;51.120;6.192;2023-02-28T14:37:10;1.70;;;1.60;;
18102;SDS011;9178;51.120;6.192;2023-02-28T14:39:43;1.80;;;1.70;;
18102;SDS011;9178;51.120;6.192;2023-02-28T14:42:30;1.70;;;1.60;;
18102;SDS011;9178;51.120;6.192;2023-02-28T14:45:19;2.20;;;1.70;;
18102;SDS011;9178;51.120;6.192;2023-02-28T14:47:56;2.27;;;1.53;;
18102;SDS011;9178;51.120;6.192;2023-02-28T14:50:35;3.40;;;1.83;;
18102;SDS011;9178;51.120;6.192;2023-02-28T14:53:04;2.60;;;2.13;;
18102;SDS011;9178;51.120;6.192;2023-02-28T14:55:46;2.40;;;1.57;;
18102;SDS011;9178;51.120;6.192;2023-02-28T14:58:26;2.93;;;1.40;;
18102;SDS011;9178;51.120;6.192;2023-02-28T15:01:09;3.73;;;1.90;;
18102;SDS011;9178;51.120;6.192;2023-02-28T15:04:02;3.17;;;1.90;;
18102;SDS011;9178;51.120;6.192;2023-02-28T15:06:41;2.23;;;1.90;;
18102;SDS011;9178;51.120;6.192;2023-02-28T15:09:09;1.60;;;1.50;;
18102;SDS011;9178;51.120;6.192;2023-02-28T15:11:39;3.47;;;1.93;;
18102;SDS011;9178;51.120;6.192;2023-02-28T15:14:06;4.30;;;2.37;;
18102;SDS011;9178;51.120;6.192;2023-02-28T15:16:40;2.33;;;2.13;;
18102;SDS011;9178;51.120;6.192;2023-02-28T15:19:13;6.53;;;4.27;;
18102;SDS011;9178;51.120;6.192;2023-02-28T15:21:44;2.30;;;2.00;;
18102;SDS011;9178;51.120;6.192;2023-02-28T15:24:15;2.97;;;2.30;;
18102;SDS011;9178;51.120;6.192;2023-02-28T15:26:51;3.13;;;2.10;;
18102;SDS011;9178;51.120;6.192;2023-02-28T15:29:21;2.23;;;2.07;;
18102;SDS011;9178;51.120;6.192;2023-02-28T15:31:51;5.23;;;2.13;;
18102;SDS011;9178;51.120;6.192;2023-02-28T15:34:27;3.90;;;2.00;;
18102;SDS011;9178;51.120;6.192;2023-02-28T15:37:00;3.67;;;2.17;;
18102;SDS011;9178;51.120;6.192;2023-02-28T15:39:27;2.30;;;2.10;;
18102;SDS011;9178;51.120;6.192;2023-02-28T15:42:09;2.13;;;1.80;;